createdAt,value
2018-06-28T00:00:35.027Z,101816.73
2018-06-28T00:03:04.621Z,101814.05
2018-06-28T00:05:34.021Z,101819.03
2018-06-28T00:08:04.485Z,101818.25
2018-06-28T00:10:33.833Z,101819.77
2018-06-28T00:13:02.706Z,101815.73
2018-06-28T00:15:32.153Z,101813.92
2018-06-28T00:18:00.967Z,101816.77
2018-06-28T00:20:29.735Z,101817.94
2018-06-28T00:22:58.575Z,101817.79
2018-06-28T00:25:27.386Z,101819.45
2018-06-28T00:27:56.446Z,101820.93
2018-06-28T00:30:25.536Z,101812.64
2018-06-28T00:32:54.665Z,101814.43
2018-06-28T00:35:23.575Z,101807.25
2018-06-28T00:37:52.634Z,101803.95
2018-06-28T00:40:22.303Z,101811.47
2018-06-28T00:42:51.100Z,101805.12
2018-06-28T00:45:19.904Z,101803.37
2018-06-28T00:47:48.707Z,101804.10
2018-06-28T00:50:17.522Z,101795.08
2018-06-28T00:52:47.255Z,101797.91
2018-06-28T00:55:17.831Z,101797.20
2018-06-28T00:57:47.336Z,101797.31
2018-06-28T01:00:16.102Z,101792.56
2018-06-28T01:02:45.884Z,101799.98
2018-06-28T01:05:15.617Z,101798.53
2018-06-28T01:07:44.816Z,101793.26
2018-06-28T01:10:14.657Z,101791.80
2018-06-28T01:12:43.420Z,101788.91
2018-06-28T01:15:13.026Z,101783.74
2018-06-28T01:17:42.557Z,101783.45
2018-06-28T01:20:11.365Z,101777.55
2018-06-28T01:22:40.215Z,101772.22
2018-06-28T01:25:09.030Z,101778.67
2018-06-28T01:27:38.077Z,101779.20
2018-06-28T01:30:07.573Z,101771.60
2018-06-28T01:32:36.643Z,101774.83
2018-06-28T01:35:05.539Z,101773.27
2018-06-28T01:37:34.686Z,101766.39
2018-06-28T01:40:04.229Z,101772.95
2018-06-28T01:42:43.728Z,101767.75
2018-06-28T01:45:12.539Z,101771.91
2018-06-28T01:47:41.552Z,101767.85
2018-06-28T01:50:10.475Z,101765.87
2018-06-28T01:52:39.843Z,101766.64
2018-06-28T01:55:09.991Z,101769.34
2018-06-28T01:57:40.039Z,101761.50
2018-06-28T02:00:08.987Z,101768.06
2018-06-28T02:02:38.276Z,101759.63
2018-06-28T02:05:07.712Z,101762.06
2018-06-28T02:07:37.282Z,101763.83
2018-06-28T02:10:06.692Z,101765.09
2018-06-28T02:12:35.468Z,101760.09
2018-06-28T02:15:05.870Z,101766.23
2018-06-28T02:17:35.444Z,101755.72
2018-06-28T02:20:05.378Z,101759.27
2018-06-28T02:22:34.142Z,101769.56
2018-06-28T02:25:02.914Z,101763.94
2018-06-28T02:27:32.507Z,101765.39
2018-06-28T02:30:01.302Z,101769.55
2018-06-28T02:32:30.078Z,101766.70
2018-06-28T02:34:58.895Z,101756.50
2018-06-28T02:37:27.706Z,101760.17
2018-06-28T02:39:56.754Z,101760.80
2018-06-28T02:42:25.895Z,101760.06
2018-06-28T02:44:55.110Z,101757.20
2018-06-28T02:47:24.089Z,101758.45
2018-06-28T02:49:53.947Z,101759.78
2018-06-28T02:52:22.974Z,101757.12
2018-06-28T02:54:52.753Z,101753.23
2018-06-28T02:57:22.234Z,101750.46
2018-06-28T02:59:51.156Z,101747.11
2018-06-28T03:02:20.825Z,101748.45
2018-06-28T03:04:49.638Z,101749.55
2018-06-28T03:07:19.234Z,101751.19
2018-06-28T03:09:48.626Z,101745.98
2018-06-28T03:12:17.438Z,101745.53
2018-06-28T03:14:46.974Z,101742.11
2018-06-28T03:17:16.601Z,101748.18
2018-06-28T03:19:45.986Z,101746.34
2018-06-28T03:22:14.759Z,101743.84
2018-06-28T03:24:43.498Z,101733.34
2018-06-28T03:27:12.934Z,101735.42
2018-06-28T03:29:41.700Z,101736.88
2018-06-28T03:32:10.498Z,101739.02
2018-06-28T03:34:39.304Z,101732.91
2018-06-28T03:37:08.046Z,101729.50
2018-06-28T03:39:36.934Z,101722.95
2018-06-28T03:42:05.792Z,101724.98
2018-06-28T03:44:34.803Z,101726.71
2018-06-28T03:47:04.425Z,101737.34
2018-06-28T03:49:33.171Z,101733.38
2018-06-28T03:52:01.982Z,101729.01
2018-06-28T03:54:31.691Z,101732.22
2018-06-28T03:57:01.257Z,101731.35
2018-06-28T03:59:30.006Z,101731.62
2018-06-28T04:01:59.325Z,101725.46
2018-06-28T04:04:28.111Z,101720.09
2018-06-28T04:06:57.589Z,101724.33
2018-06-28T04:09:27.147Z,101719.00
2018-06-28T04:11:55.938Z,101719.09
2018-06-28T04:14:26.299Z,101717.16
2018-06-28T04:16:56.101Z,101712.34
2018-06-28T04:19:25.768Z,101717.83
2018-06-28T04:21:55.511Z,101715.70
2018-06-28T04:24:24.587Z,101711.28
2018-06-28T04:26:54.537Z,101712.42
2018-06-28T04:29:23.935Z,101716.22
2018-06-28T04:31:53.196Z,101715.19
2018-06-28T04:34:21.982Z,101714.87
2018-06-28T04:36:50.857Z,101719.47
2018-06-28T04:39:19.753Z,101712.17
2018-06-28T04:41:48.562Z,101717.25
2018-06-28T04:44:18.483Z,101715.45
2018-06-28T04:46:47.263Z,101706.25
2018-06-28T04:49:16.071Z,101708.86
2018-06-28T04:51:46.159Z,101706.00
2018-06-28T04:54:15.983Z,101711.62
2018-06-28T04:56:45.574Z,101703.61
2018-06-28T04:59:14.379Z,101702.73
2018-06-28T05:01:44.550Z,101704.09
2018-06-28T05:04:13.442Z,101703.27
2018-06-28T05:06:42.947Z,101692.33
2018-06-28T05:09:12.273Z,101694.78
2018-06-28T05:11:41.114Z,101693.70
2018-06-28T05:14:10.720Z,101687.94
2018-06-28T05:16:40.231Z,101692.61
2018-06-28T05:19:09.858Z,101690.19
2018-06-28T05:21:38.625Z,101683.89
2018-06-28T05:24:07.436Z,101685.27
2018-06-28T05:26:36.639Z,101684.41
2018-06-28T05:29:05.496Z,101683.84
2018-06-28T05:31:34.250Z,101686.83
2018-06-28T05:34:03.111Z,101681.05
2018-06-28T05:36:31.895Z,101682.41
2018-06-28T05:39:00.913Z,101679.17
2018-06-28T05:41:30.417Z,101682.47
2018-06-28T05:43:59.227Z,101676.44
2018-06-28T05:46:28.015Z,101674.01
2018-06-28T05:48:56.936Z,101671.64
2018-06-28T05:51:25.753Z,101672.58
2018-06-28T05:53:55.586Z,101669.98
2018-06-28T05:56:25.603Z,101670.09
2018-06-28T05:58:55.383Z,101676.48
2018-06-28T06:01:25.134Z,101670.51
2018-06-28T06:03:54.821Z,101671.09
2018-06-28T06:06:24.560Z,101666.44
2018-06-28T06:08:55.842Z,101663.70
2018-06-28T06:11:25.435Z,101659.08
2018-06-28T06:13:57.708Z,101657.55
2018-06-28T06:16:27.648Z,101660.04
2018-06-28T06:18:57.410Z,101656.25
2018-06-28T06:21:26.242Z,101656.59
2018-06-28T06:23:55.970Z,101648.37
2018-06-28T06:26:25.643Z,101651.44
2018-06-28T06:28:54.636Z,101651.16
2018-06-28T06:31:23.836Z,101643.78
2018-06-28T06:33:52.707Z,101647.09
2018-06-28T06:36:21.504Z,101641.61
2018-06-28T06:38:51.176Z,101644.63
2018-06-28T06:41:19.995Z,101643.51
2018-06-28T06:43:48.780Z,101641.05
2018-06-28T06:46:17.660Z,101637.50
2018-06-28T06:48:46.500Z,101642.69
2018-06-28T06:51:15.406Z,101639.95
2018-06-28T06:53:44.373Z,101637.17
2018-06-28T06:56:14.417Z,101631.66
2018-06-28T06:58:43.191Z,101633.61
2018-06-28T07:01:12.134Z,101628.66
2018-06-28T07:03:40.938Z,101633.61
2018-06-28T07:06:10.817Z,101625.09
2018-06-28T07:08:40.246Z,101626.74
2018-06-28T07:11:09.201Z,101622.86
2018-06-28T07:13:37.988Z,101615.72
2018-06-28T07:16:07.867Z,101619.23
2018-06-28T07:18:37.308Z,101613.73
2018-06-28T07:21:06.168Z,101618.09
2018-06-28T07:23:34.945Z,101614.82
2018-06-28T07:26:04.870Z,101607.13
2018-06-28T07:28:33.626Z,101609.05
2018-06-28T07:31:02.448Z,101598.86
2018-06-28T07:33:31.250Z,101595.84
2018-06-28T07:36:00.776Z,101596.40
2018-06-28T07:38:29.530Z,101598.88
2018-06-28T07:40:58.321Z,101599.37
2018-06-28T07:43:27.706Z,101597.44
2018-06-28T07:45:56.729Z,101587.48
2018-06-28T07:48:26.350Z,101587.22
2018-06-28T07:50:55.882Z,101583.64
2018-06-28T07:53:25.059Z,101578.66
2018-06-28T07:55:54.890Z,101578.59
2018-06-28T07:58:23.672Z,101578.33
2018-06-28T08:00:52.440Z,101571.72
2018-06-28T08:03:21.263Z,101567.56
2018-06-28T08:05:50.842Z,101557.01
2018-06-28T08:08:20.534Z,101556.34
2018-06-28T08:10:49.631Z,101553.25
2018-06-28T08:13:18.414Z,101551.47
2018-06-28T08:15:48.218Z,101550.78
2018-06-28T08:18:17.677Z,101548.53
2018-06-28T08:20:47.144Z,101548.53
2018-06-28T08:23:15.927Z,101538.57
2018-06-28T08:25:45.515Z,101537.48
2018-06-28T08:28:14.545Z,101532.78
2018-06-28T08:30:43.278Z,101531.02
2018-06-28T08:33:12.098Z,101527.90
2018-06-28T08:35:41.780Z,101528.27
2018-06-28T08:38:10.552Z,101527.98
2018-06-28T08:40:39.267Z,101521.48
2018-06-28T08:43:08.107Z,101520.34
2018-06-28T08:45:36.910Z,101530.76
2018-06-28T08:48:05.856Z,101526.70
2018-06-28T08:50:34.670Z,101523.37
2018-06-28T08:53:03.467Z,101524.72
2018-06-28T08:55:33.347Z,101522.52
2018-06-28T08:58:02.168Z,101523.52
2018-06-28T09:00:30.915Z,101521.84
2018-06-28T09:02:59.710Z,101514.14
2018-06-28T09:05:29.355Z,101515.10
2018-06-28T09:07:58.929Z,101515.30
2018-06-28T09:10:28.751Z,101511.33
2018-06-28T09:12:57.959Z,101512.58
2018-06-28T09:15:28.595Z,101510.38
2018-06-28T09:17:58.646Z,101502.11
2018-06-28T09:20:29.382Z,101497.75
2018-06-28T09:22:58.602Z,101488.72
2018-06-28T09:25:27.843Z,101481.47
2018-06-28T09:27:57.683Z,101477.80
2018-06-28T09:30:26.610Z,101470.97
2018-06-28T09:32:57.767Z,101468.45
2018-06-28T09:35:27.230Z,101465.36
2018-06-28T09:37:56.633Z,101463.41
2018-06-28T09:40:25.496Z,101462.57
2018-06-28T09:42:54.505Z,101457.68
2018-06-28T09:45:23.426Z,101457.80
2018-06-28T09:47:52.252Z,101451.38
2018-06-28T09:50:21.011Z,101444.95
2018-06-28T09:52:49.771Z,101440.73
2018-06-28T09:55:20.142Z,101433.71
2018-06-28T09:57:48.900Z,101439.49
2018-06-28T10:01:20.688Z,101436.56
2018-06-28T10:03:49.466Z,101428.75
2018-06-28T10:09:07.132Z,101422.33
2018-06-28T10:11:35.923Z,101424.66
2018-06-28T10:14:05.718Z,101419.56
2018-06-28T10:16:35.168Z,101411.52
2018-06-28T10:19:04.537Z,101410.61
2018-06-28T10:21:33.303Z,101406.98
2018-06-28T10:24:02.084Z,101404.91
2018-06-28T10:26:31.718Z,101397.65
2018-06-28T10:29:01.276Z,101400.72
2018-06-28T10:31:30.088Z,101384.36
2018-06-28T10:33:59.162Z,101388.45
2018-06-28T10:36:29.011Z,101378.09
2018-06-28T10:38:58.747Z,101387.02
2018-06-28T10:41:28.730Z,101365.69
2018-06-28T10:43:58.002Z,101371.67
2018-06-28T10:46:26.946Z,101373.76
2018-06-28T10:48:55.753Z,101365.08
2018-06-28T10:51:24.570Z,101358.13
2018-06-28T10:53:54.686Z,101358.64
2018-06-28T10:56:24.711Z,101356.19
2018-06-28T10:58:53.460Z,101346.85
2018-06-28T11:01:22.227Z,101341.79
2018-06-28T11:03:51.015Z,101344.22
2018-06-28T11:06:20.515Z,101339.83
2018-06-28T11:08:50.696Z,101339.05
2018-06-28T11:11:19.511Z,101327.40
2018-06-28T11:13:48.994Z,101322.92
2018-06-28T11:16:18.618Z,101317.73
2018-06-28T11:18:48.073Z,101321.16
2018-06-28T11:21:16.840Z,101315.33
2018-06-28T11:23:45.630Z,101315.02
2018-06-28T11:26:15.242Z,101309.70
2018-06-28T11:28:45.522Z,101306.40
2018-06-28T11:31:14.628Z,101293.47
2018-06-28T11:33:43.500Z,101297.36
2018-06-28T11:36:12.547Z,101289.89
2018-06-28T11:38:41.329Z,101291.07
2018-06-28T11:41:10.490Z,101285.30
2018-06-28T11:43:39.614Z,101280.37
2018-06-28T11:46:08.815Z,101285.38
2018-06-28T11:48:37.566Z,101282.47
2018-06-28T11:51:06.657Z,101278.69
2018-06-28T11:53:35.577Z,101267.03
2018-06-28T11:56:05.359Z,101268.47
2018-06-28T11:58:34.185Z,101260.06
2018-06-28T12:01:03.370Z,101262.38
2018-06-28T12:03:32.405Z,101253.27
2018-06-28T12:06:02.362Z,101251.33
2018-06-28T12:08:32.547Z,101244.94
2018-06-28T12:11:01.992Z,101246.31
2018-06-28T12:13:31.031Z,101239.59
2018-06-28T12:16:00.964Z,101235.50
2018-06-28T12:18:30.428Z,101237.14
2018-06-28T12:20:59.248Z,101227.58
2018-06-28T12:23:28.076Z,101224.81
2018-06-28T12:25:57.918Z,101214.17
2018-06-28T12:28:26.687Z,101205.56
2018-06-28T12:30:55.520Z,101205.12
2018-06-28T12:33:24.323Z,101209.30
2018-06-28T12:35:57.958Z,101206.79
2018-06-28T12:38:27.421Z,101205.41
2018-06-28T12:40:56.195Z,101200.88
2018-06-28T12:43:27.338Z,101195.42
2018-06-28T12:45:56.311Z,101192.43
2018-06-28T12:48:25.123Z,101183.57
2018-06-28T12:50:54.319Z,101181.11
2018-06-28T12:53:23.141Z,101174.75
2018-06-28T12:56:24.991Z,101172.30
2018-06-28T12:58:54.964Z,101174.26
2018-06-28T13:01:24.776Z,101166.94
2018-06-28T13:03:53.794Z,101157.10
2018-06-28T13:06:23.408Z,101154.85
2018-06-28T13:08:54.118Z,101153.45
2018-06-28T13:11:23.197Z,101145.45
2018-06-28T13:13:52.865Z,101139.89
2018-06-28T13:16:23.183Z,101134.81
2018-06-28T13:18:53.145Z,101137.36
2018-06-28T13:21:21.966Z,101129.03
2018-06-28T13:23:51.323Z,101114.06
2018-06-28T13:26:21.014Z,101109.57
2018-06-28T13:28:49.820Z,101107.25
2018-06-28T13:31:18.595Z,101106.30
2018-06-28T13:33:47.468Z,101099.55
2018-06-28T13:36:16.163Z,101104.09
2018-06-28T13:38:45.680Z,101099.08
2018-06-28T13:41:14.898Z,101086.58
2018-06-28T13:43:43.402Z,101081.67
2018-06-28T13:46:12.268Z,101074.36
2018-06-28T13:48:41.044Z,101070.08
2018-06-28T13:51:09.925Z,101066.81
2018-06-28T13:53:38.782Z,101067.31
2018-06-28T13:56:08.625Z,101062.67
2018-06-28T13:58:37.450Z,101056.44
2018-06-28T14:01:06.262Z,101063.78
2018-06-28T14:03:35.233Z,101056.45
2018-06-28T14:06:05.043Z,101048.41
2018-06-28T14:08:34.480Z,101045.96
2018-06-28T14:11:03.603Z,101042.05
2018-06-28T14:13:33.454Z,101039.42
2018-06-28T14:16:03.711Z,101033.52
2018-06-28T14:18:33.399Z,101033.02
2018-06-28T14:21:03.764Z,101025.15
2018-06-28T14:23:32.829Z,101029.13
2018-06-28T14:26:02.717Z,101015.88
2018-06-28T14:28:31.954Z,101015.41
2018-06-28T14:31:00.875Z,101015.62
2018-06-28T14:33:29.857Z,101016.82
2018-06-28T14:35:58.820Z,101011.14
2018-06-28T14:38:28.440Z,101013.41
2018-06-28T14:40:57.230Z,101008.27
2018-06-28T14:43:25.992Z,101009.58
2018-06-28T14:45:55.227Z,101001.55
2018-06-28T14:48:24.021Z,100991.38
2018-06-28T14:50:52.910Z,100983.70
2018-06-28T14:53:21.792Z,100986.28
2018-06-28T14:55:51.808Z,100977.03
2018-06-28T14:58:20.618Z,100964.48
2018-06-28T15:00:49.420Z,100972.87
2018-06-28T15:03:18.292Z,100965.67
2018-06-28T15:05:48.176Z,100961.91
2018-06-28T15:08:17.508Z,100958.20
2018-06-28T15:10:46.441Z,100955.20
2018-06-28T15:13:15.194Z,100937.31
2018-06-28T15:15:45.195Z,100939.72
2018-06-28T15:18:14.385Z,100926.63
2018-06-28T15:20:43.926Z,100926.39
2018-06-28T15:23:12.714Z,100928.83
2018-06-28T15:25:42.208Z,100923.38
2018-06-28T15:28:11.003Z,100921.91
2018-06-28T15:30:39.779Z,100909.23
2018-06-28T15:33:08.614Z,100912.88
2018-06-28T15:35:37.462Z,100907.21
2018-06-28T15:38:07.474Z,100906.83
2018-06-28T15:40:36.262Z,100898.05
2018-06-28T15:43:05.111Z,100900.67
2018-06-28T15:45:34.127Z,100893.38
2018-06-28T15:48:03.177Z,100890.95
2018-06-28T15:50:32.424Z,100892.62
2018-06-28T15:53:01.423Z,100883.72
2018-06-28T15:55:31.572Z,100878.16
2018-06-28T15:58:01.627Z,100879.75
2018-06-28T16:00:30.751Z,100879.18
2018-06-28T16:02:59.677Z,100879.14
2018-06-28T16:05:29.553Z,100875.18
2018-06-28T16:08:00.961Z,100868.34
2018-06-28T16:10:30.108Z,100865.66
2018-06-28T16:12:58.916Z,100863.83
2018-06-28T16:15:28.798Z,100858.75
2018-06-28T16:17:58.538Z,100851.20
2018-06-28T16:20:27.904Z,100840.14
2018-06-28T16:22:56.682Z,100831.85
2018-06-28T16:25:57.448Z,100835.18
2018-06-28T16:28:27.126Z,100843.15
2018-06-28T16:30:55.952Z,100834.88
2018-06-28T16:33:24.698Z,100829.24
2018-06-28T16:35:53.499Z,100835.64
2018-06-28T16:38:23.915Z,100834.03
2018-06-28T16:40:52.786Z,100834.28
2018-06-28T16:43:22.036Z,100833.19
2018-06-28T16:45:50.960Z,100826.38
2018-06-28T16:48:19.811Z,100828.20
2018-06-28T16:50:48.965Z,100826.12
2018-06-28T16:53:17.835Z,100823.45
2018-06-28T16:55:47.621Z,100821.27
2018-06-28T16:58:16.411Z,100822.36
2018-06-28T17:00:45.218Z,100809.67
2018-06-28T17:03:16.051Z,100808.31
2018-06-28T17:05:46.367Z,100806.52
2018-06-28T17:08:15.807Z,100803.58
2018-06-28T17:10:44.676Z,100799.48
2018-06-28T17:13:14.254Z,100803.19
2018-06-28T17:15:43.751Z,100787.23
2018-06-28T17:18:13.373Z,100792.06
2018-06-28T17:20:43.117Z,100791.19
2018-06-28T17:23:11.916Z,100785.16
2018-06-28T17:25:41.363Z,100788.09
2018-06-28T17:28:10.723Z,100780.49
2018-06-28T17:30:39.534Z,100781.39
2018-06-28T17:33:08.335Z,100771.32
2018-06-28T17:35:38.006Z,100778.50
2018-06-28T17:38:07.615Z,100779.55
2018-06-28T17:40:36.453Z,100776.77
2018-06-28T17:43:05.264Z,100773.64
2018-06-28T17:45:34.072Z,100780.95
2018-06-28T17:48:03.091Z,100768.75
2018-06-28T17:50:32.254Z,100764.36
2018-06-28T17:53:01.236Z,100755.44
2018-06-28T17:55:30.994Z,100756.95
2018-06-28T17:57:59.931Z,100753.01
2018-06-28T18:00:28.869Z,100747.08
2018-06-28T18:02:57.692Z,100749.28
2018-06-28T18:05:27.466Z,100747.77
2018-06-28T18:07:57.195Z,100751.69
2018-06-28T18:10:26.605Z,100736.88
2018-06-28T18:12:55.362Z,100745.23
2018-06-28T18:15:25.158Z,100741.66
2018-06-28T18:17:54.696Z,100743.35
2018-06-28T18:20:24.178Z,100738.87
2018-06-28T18:22:52.943Z,100735.50
2018-06-28T18:25:21.685Z,100724.89
2018-06-28T18:27:51.314Z,100727.11
2018-06-28T18:30:20.097Z,100721.91
2018-06-28T18:32:48.924Z,100723.31
2018-06-28T18:35:17.727Z,100716.51
2018-06-28T18:37:46.496Z,100717.07
2018-06-28T18:40:15.727Z,100720.16
2018-06-28T18:42:44.522Z,100715.52
2018-06-28T18:45:13.370Z,100715.97
2018-06-28T18:47:42.117Z,100721.72
2018-06-28T18:50:10.971Z,100709.74
2018-06-28T18:52:39.886Z,100707.44
2018-06-28T18:55:09.790Z,100710.80
2018-06-28T18:57:39.662Z,100717.72
2018-06-28T19:00:08.477Z,100710.90
2018-06-28T19:02:37.523Z,100705.34
2018-06-28T19:05:07.450Z,100702.83
2018-06-28T19:07:37.143Z,100707.11
2018-06-28T19:10:11.084Z,100709.08
2018-06-28T19:12:40.024Z,100712.07
2018-06-28T19:15:14.728Z,100709.51
2018-06-28T19:17:44.607Z,100711.29
2018-06-28T19:20:14.378Z,100708.34
2018-06-28T19:22:48.230Z,100708.13
2018-06-28T19:25:17.010Z,100709.27
2018-06-28T19:27:46.430Z,100710.71
2018-06-28T19:30:20.172Z,100708.90
2018-06-28T19:32:49.111Z,100707.63
2018-06-28T19:35:17.930Z,100712.89
2018-06-28T19:37:50.153Z,100719.84
2018-06-28T19:40:25.006Z,100717.19
2018-06-28T19:43:09.004Z,100710.78
2018-06-28T19:45:37.818Z,100714.20
2018-06-28T19:48:06.905Z,100706.61
2018-06-28T19:50:41.004Z,100708.89
2018-06-28T19:53:11.763Z,100708.42
2018-06-28T19:55:41.736Z,100703.55
2018-06-28T19:58:10.518Z,100700.90
2018-06-28T20:01:42.787Z,100700.41
2018-06-28T20:04:13.118Z,100693.66
2018-06-28T20:06:44.179Z,100689.61
2018-06-28T20:09:13.783Z,100691.86
2018-06-28T20:11:42.590Z,100695.70
2018-06-28T20:14:18.530Z,100686.47
2018-06-28T20:16:53.259Z,100683.75
2018-06-28T20:19:27.966Z,100687.34
2018-06-28T20:21:56.747Z,100677.81
2018-06-28T20:24:25.678Z,100681.67
2018-06-28T20:27:00.815Z,100681.12
2018-06-28T20:29:34.621Z,100682.27
2018-06-28T20:32:08.736Z,100673.81
2018-06-28T20:34:37.703Z,100670.85
2018-06-28T20:37:06.607Z,100669.77
2018-06-28T20:39:36.422Z,100671.99
2018-06-28T20:42:06.243Z,100667.91
2018-06-28T20:44:35.155Z,100665.20
2018-06-28T20:47:03.997Z,100663.03
2018-06-28T20:49:33.564Z,100667.42
2018-06-28T20:52:03.047Z,100670.97
2018-06-28T20:54:33.849Z,100678.62
2018-06-28T20:57:04.695Z,100672.06
2018-06-28T20:59:33.729Z,100671.24
2018-06-28T21:02:03.226Z,100686.25
2018-06-28T21:04:33.996Z,100707.53
2018-06-28T21:07:04.251Z,100714.89
2018-06-28T21:09:34.246Z,100721.46
2018-06-28T21:12:03.499Z,100723.09
2018-06-28T21:14:33.282Z,100734.27
2018-06-28T21:17:03.702Z,100730.45
2018-06-28T21:19:34.155Z,100736.74
2018-06-28T21:22:04.760Z,100737.28
2018-06-28T21:24:33.545Z,100746.83
2018-06-28T21:27:03.990Z,100742.45
2018-06-28T21:29:33.989Z,100750.08
2018-06-28T21:32:03.856Z,100752.26
2018-06-28T21:34:32.865Z,100775.45
2018-06-28T21:37:02.352Z,100794.53
2018-06-28T21:39:31.978Z,100802.14
2018-06-28T21:42:01.197Z,100804.30
2018-06-28T21:44:30.232Z,100814.29
2018-06-28T21:46:59.081Z,100809.09
2018-06-28T21:49:27.886Z,100812.60
2018-06-28T21:51:57.185Z,100835.70
2018-06-28T21:54:26.650Z,100843.28
2018-06-28T21:56:56.097Z,100851.34
2018-06-28T21:59:24.831Z,100862.43
2018-06-28T22:01:54.913Z,100856.38
2018-06-28T22:04:23.687Z,100870.73
2018-06-28T22:06:54.035Z,100858.88
2018-06-28T22:09:23.800Z,100852.78
2018-06-28T22:11:52.616Z,100875.76
2018-06-28T22:14:22.338Z,100846.25
2018-06-28T22:16:51.569Z,100871.09
2018-06-28T22:19:20.903Z,100871.75
2018-06-28T22:21:49.950Z,100870.74
2018-06-28T22:24:18.743Z,100881.98
2018-06-28T22:26:48.403Z,100883.43
2018-06-28T22:29:17.181Z,100897.41
2018-06-28T22:31:45.943Z,100892.91
2018-06-28T22:34:14.810Z,100901.78
2018-06-28T22:36:43.539Z,100922.54
2018-06-28T22:39:14.359Z,100919.45
2018-06-28T22:41:43.190Z,100908.16
2018-06-28T22:44:11.923Z,100914.59
2018-06-28T22:46:40.763Z,100913.77
2018-06-28T22:49:09.535Z,100906.06
2018-06-28T22:51:38.443Z,100911.09
2018-06-28T22:54:08.055Z,100921.94
2018-06-28T22:56:37.607Z,100922.72
2018-06-28T22:59:07.609Z,100914.23
2018-06-28T23:01:36.347Z,100914.98
2018-06-28T23:04:05.363Z,100932.28
2018-06-28T23:06:34.604Z,100925.11
2018-06-28T23:09:04.186Z,100916.08
2018-06-28T23:11:35.107Z,100935.24
2018-06-28T23:14:04.590Z,100930.25
2018-06-28T23:16:35.017Z,100929.93
2018-06-28T23:19:04.460Z,100948.62
2018-06-28T23:21:33.360Z,100944.20
2018-06-28T23:24:02.684Z,100928.70
2018-06-28T23:26:32.977Z,100938.11
2018-06-28T23:29:02.165Z,100937.77
2018-06-28T23:31:31.309Z,100944.98
2018-06-28T23:34:01.165Z,100948.47
2018-06-28T23:36:31.671Z,100955.77
2018-06-28T23:39:02.164Z,100955.16
2018-06-28T23:41:31.101Z,100958.81
2018-06-28T23:44:00.070Z,100962.77
2018-06-28T23:46:28.929Z,100960.55
2018-06-28T23:48:57.728Z,100970.80
2018-06-28T23:51:26.646Z,100984.70
2018-06-28T23:53:56.270Z,100977.78
2018-06-28T23:56:26.077Z,100980.89
2018-06-28T23:58:54.870Z,100981.85
